2PN4 weather

Quemahening Flightpark Ultralightport
Stoystown, Pennsylvania, United States

Public forecast

Using degrees Fahrenheit for public forecast. Weather courtesy of forecast.io.

METAR (pilot weather report)

Closest report is Somerset County Airport, 4.1 nm (7.6 km) SW. Retrieved 2019/05/24 18:35 UTC (9 minutes ago):

K2G9 241835Z AUTO 31011G14KT 10SM CLR 21/10 A3014 RMK AO2

TAF (pilot weather forecast)

Closest forecast is John Murtha Johnstown Cambria County Airport, 15.0 nm (27.7 km) NNE. Retrieved 2019/05/24 18:42 UTC (2 minutes ago):

TAF KJST 241740Z 2418/2518 30012G20KT P6SM SCT050 FM242300 31007KT P6SM BKN250 FM251400 18007KT P6SM OVC050